createdAt,value
2022-12-23T00:00:12.498Z,55.32
2022-12-23T00:03:35.429Z,55.11
2022-12-23T00:06:37.930Z,55.03
2022-12-23T00:09:40.310Z,54.91
2022-12-23T00:13:00.986Z,54.84
2022-12-23T00:16:04.796Z,54.69
2022-12-23T00:19:07.281Z,54.67
2022-12-23T00:22:09.599Z,55.32
2022-12-23T00:25:13.518Z,55.20
2022-12-23T00:28:17.402Z,55.89
2022-12-23T00:31:21.667Z,56.33
2022-12-23T00:34:24.124Z,56.42
2022-12-23T00:37:26.087Z,56.12
2022-12-23T00:40:47.089Z,56.63
2022-12-23T00:43:49.099Z,55.68
2022-12-23T00:46:51.975Z,57.20
2022-12-23T00:49:54.245Z,56.97
2022-12-23T00:52:57.276Z,58.96
2022-12-23T00:55:59.238Z,59.05
2022-12-23T00:59:01.828Z,59.02
2022-12-23T01:02:22.848Z,57.89
2022-12-23T01:05:37.483Z,58.53
2022-12-23T01:08:40.066Z,57.76
2022-12-23T01:11:42.880Z,57.87
2022-12-23T01:14:44.998Z,58.50
2022-12-23T01:17:47.556Z,58.76
2022-12-23T01:20:49.664Z,59.40
2022-12-23T01:23:53.012Z,58.63
2022-12-23T01:26:55.281Z,58.15
2022-12-23T01:29:57.473Z,57.83
2022-12-23T01:32:59.507Z,58.27
2022-12-23T01:36:07.832Z,58.04
2022-12-23T01:39:10.399Z,58.24
2022-12-23T01:42:33.416Z,58.30
2022-12-23T01:45:35.650Z,58.23
2022-12-23T01:48:38.986Z,58.39
2022-12-23T01:51:40.917Z,57.99
2022-12-23T01:54:44.774Z,59.66
2022-12-23T01:57:48.553Z,60.66
2022-12-23T02:01:10.408Z,60.08
2022-12-23T02:04:18.238Z,62.38
2022-12-23T02:07:40.505Z,63.37
2022-12-23T02:11:10.994Z,64.42
2022-12-23T02:14:51.107Z,68.46
2022-12-23T02:18:11.047Z,62.84
2022-12-23T02:21:33.435Z,65.06
2022-12-23T02:24:51.685Z,63.49
2022-12-23T02:28:30.053Z,64.35
2022-12-23T02:31:50.330Z,65.14
2022-12-23T02:35:07.414Z,65.51
2022-12-23T02:38:26.434Z,68.12
2022-12-23T02:41:40.224Z,69.32
2022-12-23T02:44:59.532Z,68.67
2022-12-23T02:48:14.104Z,69.88
2022-12-23T02:51:16.583Z,67.99
2022-12-23T02:54:28.381Z,66.51
2022-12-23T02:57:36.746Z,65.67
2022-12-23T03:00:41.981Z,66.67
2022-12-23T03:03:49.155Z,64.21
2022-12-23T03:06:54.292Z,62.89
2022-12-23T03:10:14.090Z,61.88
2022-12-23T03:13:41.493Z,60.54
2022-12-23T03:16:56.677Z,60.46
2022-12-23T03:20:08.788Z,60.08
2022-12-23T03:23:20.960Z,59.53
2022-12-23T03:26:33.575Z,59.24
2022-12-23T03:29:51.045Z,59.07
2022-12-23T03:33:15.694Z,58.99
2022-12-23T03:36:24.442Z,58.86
2022-12-23T03:39:32.773Z,58.91
2022-12-23T03:42:38.743Z,58.82
2022-12-23T03:45:47.826Z,58.91
2022-12-23T03:48:54.444Z,58.96
2022-12-23T03:52:04.289Z,59.00
2022-12-23T03:55:11.487Z,59.02
2022-12-23T03:58:58.856Z,59.29
2022-12-23T04:02:07.757Z,58.60
2022-12-23T04:05:23.269Z,59.91
2022-12-23T04:08:36.819Z,59.55
2022-12-23T04:11:39.168Z,59.08
2022-12-23T04:14:51.767Z,60.03
2022-12-23T04:17:56.488Z,59.58
2022-12-23T04:20:59.123Z,59.29
2022-12-23T04:24:01.509Z,59.20
2022-12-23T04:27:03.659Z,59.18
2022-12-23T04:30:09.731Z,59.14
2022-12-23T04:33:12.818Z,59.14
2022-12-23T04:36:15.128Z,59.24
2022-12-23T04:39:17.221Z,59.27
2022-12-23T04:42:19.525Z,59.20
2022-12-23T04:45:21.937Z,59.26
2022-12-23T04:48:24.613Z,59.39
2022-12-23T04:51:26.628Z,59.35
2022-12-23T04:54:29.241Z,59.29
2022-12-23T04:57:31.229Z,59.21
2022-12-23T05:00:39.200Z,59.23
2022-12-23T05:03:43.246Z,59.29
2022-12-23T05:06:45.845Z,59.24
2022-12-23T05:09:48.244Z,59.28
2022-12-23T05:12:50.808Z,59.24
2022-12-23T05:15:54.406Z,59.27
2022-12-23T05:18:56.824Z,59.34
2022-12-23T05:21:58.889Z,59.23
2022-12-23T05:25:01.106Z,59.28
2022-12-23T05:28:04.296Z,59.48
2022-12-23T05:31:08.963Z,59.36
2022-12-23T05:34:11.040Z,59.52
2022-12-23T05:37:13.482Z,59.46
2022-12-23T05:40:21.589Z,59.47
2022-12-23T05:43:26.312Z,59.42
2022-12-23T05:46:28.934Z,59.41
2022-12-23T05:49:31.254Z,59.34
2022-12-23T05:52:33.332Z,59.45
2022-12-23T05:55:36.924Z,59.47
2022-12-23T05:58:39.038Z,59.53
2022-12-23T06:01:42.041Z,59.52
2022-12-23T06:04:44.077Z,59.58
2022-12-23T06:07:46.570Z,59.59
2022-12-23T06:10:49.426Z,59.69
2022-12-23T06:13:52.766Z,59.69
2022-12-23T06:16:54.741Z,59.64
2022-12-23T06:19:57.611Z,59.77
2022-12-23T06:22:59.899Z,59.65
2022-12-23T06:26:05.029Z,59.78
2022-12-23T06:29:07.630Z,59.98
2022-12-23T06:32:10.200Z,59.84
2022-12-23T06:35:12.289Z,59.70
2022-12-23T06:38:15.200Z,60.34
2022-12-23T06:41:17.258Z,60.55
2022-12-23T06:44:20.163Z,60.58
2022-12-23T06:47:22.264Z,60.71
2022-12-23T06:50:24.716Z,61.08
2022-12-23T06:53:26.741Z,60.82
2022-12-23T06:56:29.348Z,60.66
2022-12-23T06:59:31.761Z,60.17
2022-12-23T07:02:34.551Z,60.17
2022-12-23T07:05:37.925Z,60.59
2022-12-23T07:08:40.988Z,61.12
2022-12-23T07:11:43.385Z,61.00
2022-12-23T07:14:46.026Z,60.83
2022-12-23T07:17:49.164Z,60.82
2022-12-23T07:20:52.657Z,60.64
2022-12-23T07:23:58.178Z,60.24
2022-12-23T07:27:01.007Z,60.69
2022-12-23T07:30:04.057Z,60.95
2022-12-23T07:33:07.052Z,60.63
2022-12-23T07:36:09.485Z,60.64
2022-12-23T07:39:12.977Z,60.59
2022-12-23T07:45:38.969Z,61.10
2022-12-23T07:48:42.059Z,60.97
2022-12-23T07:51:44.984Z,59.96
2022-12-23T07:54:47.414Z,59.44
2022-12-23T07:57:51.903Z,59.47
2022-12-23T08:01:06.783Z,57.61
2022-12-23T08:04:09.387Z,57.25
2022-12-23T08:07:12.124Z,57.88
2022-12-23T08:10:15.112Z,58.27
2022-12-23T08:13:17.002Z,58.43
2022-12-23T08:16:21.116Z,58.45
2022-12-23T08:19:23.287Z,58.76
2022-12-23T08:22:26.262Z,58.89
2022-12-23T08:25:28.702Z,59.13
2022-12-23T08:28:31.720Z,59.23
2022-12-23T08:31:33.906Z,59.32
2022-12-23T08:34:37.182Z,59.29
2022-12-23T08:37:40.445Z,59.40
2022-12-23T08:40:43.227Z,59.37
2022-12-23T08:43:45.728Z,59.44
2022-12-23T08:46:48.896Z,59.57
2022-12-23T08:49:51.153Z,59.39
2022-12-23T08:52:53.557Z,59.51
2022-12-23T08:55:56.200Z,59.16
2022-12-23T08:58:59.537Z,58.76
2022-12-23T09:02:03.570Z,58.51
2022-12-23T09:05:06.219Z,58.41
2022-12-23T09:08:09.189Z,58.25
2022-12-23T09:11:14.048Z,58.07
2022-12-23T09:14:18.103Z,57.98
2022-12-23T09:17:20.619Z,58.06
2022-12-23T09:20:23.225Z,58.04
2022-12-23T09:23:25.834Z,57.96
2022-12-23T09:26:30.241Z,57.73
2022-12-23T09:29:32.608Z,57.47
2022-12-23T09:32:34.927Z,57.26
2022-12-23T09:35:37.658Z,56.99
2022-12-23T09:38:39.802Z,56.85
2022-12-23T09:41:48.860Z,56.80
2022-12-23T09:45:03.297Z,56.83
2022-12-23T09:48:14.908Z,56.65
2022-12-23T09:51:22.707Z,56.43
2022-12-23T09:54:29.173Z,56.43
2022-12-23T09:57:56.914Z,56.34
2022-12-23T10:01:18.061Z,56.30
2022-12-23T10:16:50.891Z,55.93
2022-12-23T10:20:01.652Z,55.98
2022-12-23T10:23:07.897Z,55.99
2022-12-23T10:26:26.277Z,56.04
2022-12-23T10:29:33.378Z,55.84
2022-12-23T10:32:51.569Z,55.84
2022-12-23T10:36:14.969Z,55.69
2022-12-23T10:39:29.952Z,55.55
2022-12-23T10:42:44.541Z,55.68
2022-12-23T10:46:18.835Z,55.68
2022-12-23T10:49:35.470Z,55.63
2022-12-23T10:52:41.352Z,55.67
2022-12-23T10:55:44.168Z,55.72
2022-12-23T10:58:52.048Z,55.75
2022-12-23T11:02:16.140Z,55.74
2022-12-23T11:05:26.039Z,55.73
2022-12-23T11:08:31.424Z,55.79
2022-12-23T11:11:55.610Z,55.76
2022-12-23T11:14:59.339Z,55.89
2022-12-23T11:18:17.317Z,55.85
2022-12-23T11:21:23.498Z,55.85
2022-12-23T11:24:38.085Z,55.87
2022-12-23T11:27:46.191Z,55.98
2022-12-23T11:31:08.829Z,55.94
2022-12-23T11:34:20.129Z,55.99
2022-12-23T11:37:43.680Z,56.06
2022-12-23T11:40:47.368Z,56.11
2022-12-23T11:43:58.198Z,56.08
2022-12-23T11:47:22.469Z,56.05
2022-12-23T11:50:32.311Z,56.04
2022-12-23T11:53:35.254Z,56.05
2022-12-23T11:56:41.084Z,56.08
2022-12-23T11:59:50.912Z,56.07
2022-12-23T12:02:56.903Z,56.15
2022-12-23T12:06:07.736Z,56.13
2022-12-23T12:09:13.469Z,56.21
2022-12-23T12:12:20.727Z,56.33
2022-12-23T12:16:05.797Z,56.38
2022-12-23T12:19:15.646Z,56.56
2022-12-23T12:22:40.534Z,56.66
2022-12-23T12:26:18.808Z,56.82
2022-12-23T12:29:32.046Z,56.86
2022-12-23T12:32:40.347Z,56.97
2022-12-23T12:35:56.747Z,57.07
2022-12-23T12:39:01.692Z,57.20
2022-12-23T12:42:17.199Z,57.40
2022-12-23T12:45:33.862Z,57.40
2022-12-23T12:49:11.448Z,57.57
2022-12-23T12:52:26.442Z,57.71
2022-12-23T12:55:33.405Z,57.82
2022-12-23T12:58:37.876Z,58.25
2022-12-23T13:02:06.032Z,57.95
2022-12-23T13:05:11.814Z,57.77
2022-12-23T13:08:40.041Z,57.74
2022-12-23T13:11:54.571Z,57.61
2022-12-23T13:15:23.237Z,57.42
2022-12-23T13:22:32.038Z,57.35
2022-12-23T13:25:43.106Z,57.24
2022-12-23T13:29:00.120Z,56.97
2022-12-23T13:32:29.028Z,56.75
2022-12-23T13:35:36.125Z,56.57
2022-12-23T13:39:08.358Z,56.28
2022-12-23T13:42:25.198Z,56.53
2022-12-23T13:45:36.375Z,56.30
2022-12-23T13:48:43.842Z,56.18
2022-12-23T13:52:06.748Z,56.18
2022-12-23T13:55:44.238Z,56.02
2022-12-23T13:58:51.862Z,56.09
2022-12-23T14:01:54.430Z,55.98
2022-12-23T14:05:01.170Z,55.84
2022-12-23T14:08:37.422Z,55.95
2022-12-23T14:11:43.615Z,55.90
2022-12-23T14:15:07.549Z,56.07
2022-12-23T14:18:28.430Z,55.93
2022-12-23T14:21:54.938Z,55.83
2022-12-23T14:25:20.118Z,55.80
2022-12-23T14:29:19.051Z,55.77
2022-12-23T14:32:30.999Z,55.76
2022-12-23T14:35:38.561Z,55.74
2022-12-23T14:39:13.470Z,55.64
2022-12-23T14:42:36.434Z,55.49
2022-12-23T14:45:44.922Z,55.44
2022-12-23T14:48:46.936Z,55.44
2022-12-23T14:51:51.292Z,55.49
2022-12-23T14:55:28.042Z,55.33
2022-12-23T14:58:20.455Z,55.22
2022-12-23T15:01:50.878Z,55.31
2022-12-23T15:04:56.232Z,55.31
2022-12-23T15:07:59.022Z,55.28
2022-12-23T15:11:01.733Z,55.26
2022-12-23T15:14:11.212Z,55.22
2022-12-23T15:17:27.986Z,55.33
2022-12-23T15:20:30.124Z,55.30
2022-12-23T15:23:33.756Z,55.40
2022-12-23T15:26:35.948Z,55.54
2022-12-23T15:29:44.182Z,55.57
2022-12-23T15:32:50.921Z,55.60
2022-12-23T15:35:53.492Z,55.57
2022-12-23T15:38:55.743Z,55.62
2022-12-23T15:41:58.680Z,55.65
2022-12-23T15:45:01.139Z,55.72
2022-12-23T15:48:08.366Z,55.73
2022-12-23T15:52:05.155Z,55.83
2022-12-23T15:55:04.191Z,55.85
2022-12-23T15:58:06.854Z,55.85
2022-12-23T16:01:20.371Z,55.93
2022-12-23T16:04:29.605Z,55.87
2022-12-23T16:07:36.336Z,55.88
2022-12-23T16:10:42.483Z,55.96
2022-12-23T16:14:02.052Z,56.00
2022-12-23T16:17:10.337Z,56.05
2022-12-23T16:20:22.530Z,56.14
2022-12-23T16:23:30.571Z,56.19
2022-12-23T16:26:40.104Z,56.28
2022-12-23T16:29:49.463Z,56.28
2022-12-23T16:32:56.295Z,56.30
2022-12-23T16:36:15.512Z,56.29
2022-12-23T16:39:23.100Z,56.45
2022-12-23T16:42:26.008Z,56.39
2022-12-23T16:45:31.321Z,56.41
2022-12-23T16:48:41.602Z,56.70
2022-12-23T16:51:45.241Z,56.90
2022-12-23T16:54:57.980Z,56.74
2022-12-23T16:58:26.273Z,56.60
2022-12-23T17:06:23.751Z,56.85
2022-12-23T17:17:05.642Z,56.95
2022-12-23T17:20:56.284Z,57.26
2022-12-23T17:24:14.392Z,57.40
2022-12-23T17:27:21.490Z,57.43
2022-12-23T17:30:25.370Z,57.38
2022-12-23T17:33:32.402Z,57.31
2022-12-23T17:36:34.891Z,57.32
2022-12-23T17:39:37.468Z,57.39
2022-12-23T17:42:41.010Z,57.34
2022-12-23T17:45:45.230Z,58.28
2022-12-23T17:48:48.093Z,58.28
2022-12-23T17:51:50.907Z,58.39
2022-12-23T17:54:56.224Z,58.15
2022-12-23T17:57:58.677Z,57.91
2022-12-23T18:01:01.393Z,57.93
2022-12-23T18:04:03.458Z,58.01
2022-12-23T18:07:06.730Z,58.00
2022-12-23T18:10:12.865Z,57.85
2022-12-23T18:13:19.080Z,57.67
2022-12-23T18:16:21.702Z,57.40
2022-12-23T18:19:24.902Z,57.36
2022-12-23T18:22:28.033Z,57.35
2022-12-23T18:25:30.866Z,57.67
2022-12-23T18:28:32.956Z,55.35
2022-12-23T18:31:37.399Z,65.22
2022-12-23T18:34:40.627Z,65.54
2022-12-23T18:37:43.486Z,62.34
2022-12-23T18:40:47.520Z,58.95
2022-12-23T18:43:51.969Z,62.05
2022-12-23T18:46:54.334Z,58.34
2022-12-23T18:49:56.964Z,60.82
2022-12-23T18:52:59.624Z,59.51
2022-12-23T18:56:02.199Z,58.73
2022-12-23T18:59:04.445Z,57.87
2022-12-23T19:02:09.764Z,57.51
2022-12-23T19:05:18.256Z,57.15
2022-12-23T19:08:27.246Z,56.86
2022-12-23T19:11:30.346Z,56.91
2022-12-23T19:14:35.578Z,56.71
2022-12-23T19:17:42.221Z,56.65
2022-12-23T19:20:47.574Z,56.82
2022-12-23T19:23:51.972Z,56.74
2022-12-23T19:26:54.810Z,56.60
2022-12-23T19:29:57.564Z,56.75
2022-12-23T19:33:00.281Z,56.93
2022-12-23T19:36:02.736Z,56.94
2022-12-23T19:39:05.059Z,56.92
2022-12-23T19:42:08.962Z,57.19
2022-12-23T19:45:12.331Z,57.10
2022-12-23T19:48:15.720Z,57.11
2022-12-23T19:51:18.456Z,57.05
2022-12-23T19:54:21.014Z,57.07
2022-12-23T19:57:26.752Z,56.91
2022-12-23T20:00:28.857Z,56.95
2022-12-23T20:03:32.267Z,57.00
2022-12-23T20:06:35.328Z,57.16
2022-12-23T20:09:42.837Z,57.26
2022-12-23T20:12:44.764Z,57.16
2022-12-23T20:15:47.452Z,57.35
2022-12-23T20:18:50.492Z,57.78
2022-12-23T20:21:54.242Z,57.65
2022-12-23T20:24:56.256Z,57.19
2022-12-23T20:27:58.809Z,57.33
2022-12-23T20:31:10.238Z,57.53
2022-12-23T20:34:17.296Z,57.95
2022-12-23T20:37:20.261Z,57.83
2022-12-23T20:40:23.384Z,57.58
2022-12-23T20:43:25.429Z,57.61
2022-12-23T20:46:28.133Z,57.59
2022-12-23T20:49:30.530Z,57.32
2022-12-23T20:52:33.056Z,57.29
2022-12-23T20:55:35.138Z,57.25
2022-12-23T20:58:56.686Z,57.29
2022-12-23T21:01:59.576Z,56.99
2022-12-23T21:05:02.192Z,57.44
2022-12-23T21:08:04.656Z,57.19
2022-12-23T21:11:09.889Z,57.57
2022-12-23T21:14:12.895Z,57.80
2022-12-23T21:17:15.433Z,57.90
2022-12-23T21:20:17.714Z,57.87
2022-12-23T21:23:20.496Z,57.97
2022-12-23T21:26:25.292Z,57.76
2022-12-23T21:29:27.961Z,57.90
2022-12-23T21:32:30.325Z,57.77
2022-12-23T21:35:33.106Z,57.62
2022-12-23T21:38:38.307Z,57.48
2022-12-23T21:41:43.992Z,57.25
2022-12-23T21:44:45.989Z,57.42
2022-12-23T21:47:48.572Z,57.45
2022-12-23T21:50:51.282Z,57.51
2022-12-23T21:53:56.049Z,57.51
2022-12-23T21:56:58.560Z,57.54
2022-12-23T22:00:01.318Z,57.54
2022-12-23T22:03:06.838Z,57.70
2022-12-23T22:06:12.819Z,57.84
2022-12-23T22:09:18.015Z,57.82
2022-12-23T22:12:20.615Z,57.83
2022-12-23T22:15:22.720Z,57.67
2022-12-23T22:18:25.718Z,57.95
2022-12-23T22:21:31.187Z,57.85
2022-12-23T22:24:33.615Z,57.84
2022-12-23T22:27:39.179Z,58.61
2022-12-23T22:30:42.053Z,58.22
2022-12-23T22:33:47.013Z,57.89
2022-12-23T22:36:50.213Z,57.49
2022-12-23T22:39:52.513Z,57.19
2022-12-23T22:42:54.967Z,56.87
2022-12-23T22:45:59.136Z,56.68
2022-12-23T22:49:02.006Z,56.46
2022-12-23T22:52:04.408Z,56.27
2022-12-23T22:55:07.790Z,56.16
2022-12-23T22:58:11.411Z,56.04
2022-12-23T23:01:25.072Z,55.92
2022-12-23T23:04:27.409Z,55.69
2022-12-23T23:07:30.907Z,55.51
2022-12-23T23:10:33.475Z,55.39
2022-12-23T23:13:36.093Z,55.27
2022-12-23T23:16:39.071Z,55.28
2022-12-23T23:19:41.893Z,55.12
2022-12-23T23:22:44.757Z,54.93
2022-12-23T23:25:47.855Z,54.80
2022-12-23T23:28:49.961Z,54.68
2022-12-23T23:31:52.742Z,54.45
2022-12-23T23:34:54.771Z,54.60
2022-12-23T23:37:57.131Z,54.52
2022-12-23T23:40:59.865Z,54.55
2022-12-23T23:44:02.790Z,54.44
2022-12-23T23:47:04.936Z,54.37
2022-12-23T23:50:08.009Z,54.26
2022-12-23T23:53:12.117Z,54.05
2022-12-23T23:56:18.103Z,54.31
2022-12-23T23:59:22.924Z,53.96
